Time;durP1;ratioP1;P1;durP2;ratioP2;P2;SDS_P1;SDS_P2;PMS_P1;PMS_P2;Temp;Humidity;BMP_temperature;BMP_pressure;BME280_temperature;BME280_humidity;BME280_pressure;Samples;Min_cycle;Max_cycle;Signal;HPM_P1;HPM_P2
2023/03/25 00:01:14;;;;;;;9.75;1.52;;;16.50;96.80;;;;;;5032456;28;20037;-72
2023/03/25 00:03:41;;;;;;;7.55;1.70;;;16.40;96.30;;;;;;5032859;28;20021;-73
2023/03/25 00:06:08;;;;;;;4.72;1.20;;;16.40;96.40;;;;;;5032353;28;20494;-73
2023/03/25 00:08:33;;;;;;;7.43;1.65;;;16.40;96.50;;;;;;5032526;28;20060;-72
2023/03/25 00:11:00;;;;;;;6.00;1.58;;;16.40;96.60;;;;;;5032478;28;20061;-72
2023/03/25 00:13:26;;;;;;;6.68;1.38;;;16.30;96.50;;;;;;5031185;28;20021;-70
2023/03/25 00:15:56;;;;;;;3.95;0.95;;;16.40;96.70;;;;;;5031982;28;20029;-72
2023/03/25 00:18:23;;;;;;;5.25;1.08;;;16.30;96.60;;;;;;5030284;28;20033;-73
2023/03/25 00:20:50;;;;;;;3.42;1.10;;;16.30;96.60;;;;;;5030053;28;20029;-72
2023/03/25 00:23:18;;;;;;;3.78;1.10;;;16.30;96.70;;;;;;5032018;28;20017;-72
2023/03/25 00:25:43;;;;;;;6.00;1.10;;;16.30;96.50;;;;;;5030822;28;20071;-72
2023/03/25 00:28:13;;;;;;;6.32;1.40;;;16.30;96.60;;;;;;5031199;28;20026;-72
2023/03/25 00:30:39;;;;;;;6.72;1.48;;;16.30;96.90;;;;;;5032228;28;20022;-72
2023/03/25 00:33:06;;;;;;;4.50;1.25;;;16.20;96.60;;;;;;5032597;28;20124;-71
2023/03/25 00:35:32;;;;;;;5.43;1.17;;;16.20;96.70;;;;;;5032346;28;20025;-72
2023/03/25 00:38:01;;;;;;;7.63;1.05;;;16.30;96.80;;;;;;5032634;28;20084;-72
2023/03/25 00:40:29;;;;;;;3.63;0.63;;;16.20;96.80;;;;;;5032007;28;20041;-72
2023/03/25 00:42:56;;;;;;;4.50;0.82;;;16.20;96.80;;;;;;5032482;28;20378;-71
2023/03/25 00:45:22;;;;;;;4.35;1.10;;;16.20;96.80;;;;;;5032052;28;20502;-71
2023/03/25 00:47:47;;;;;;;2.85;0.80;;;16.20;96.80;;;;;;5032585;28;20108;-72
2023/03/25 00:50:14;;;;;;;5.32;1.02;;;16.20;96.90;;;;;;5032401;28;20076;-71
2023/03/25 00:52:40;;;;;;;3.72;1.02;;;16.20;96.90;;;;;;5032377;28;20064;-72
2023/03/25 00:55:06;;;;;;;4.20;0.70;;;16.10;97.00;;;;;;5032062;28;20022;-71
2023/03/25 00:57:31;;;;;;;4.07;0.98;;;16.20;96.80;;;;;;5031957;28;20092;-73
2023/03/25 00:59:57;;;;;;;5.80;1.30;;;16.10;96.70;;;;;;5031087;28;20029;-72
2023/03/25 01:02:23;;;;;;;6.93;1.13;;;16.10;96.80;;;;;;5032065;28;20034;-71
2023/03/25 01:04:49;;;;;;;5.40;0.95;;;16.10;96.60;;;;;;5032300;28;20049;-72
2023/03/25 01:07:19;;;;;;;3.22;0.90;;;16.10;96.70;;;;;;5032065;28;20018;-72
2023/03/25 01:09:46;;;;;;;2.53;0.70;;;16.10;96.80;;;;;;5031887;28;20390;-72
2023/03/25 01:12:15;;;;;;;3.95;0.90;;;16.10;96.70;;;;;;5031972;28;20068;-72
2023/03/25 01:14:42;;;;;;;4.90;1.00;;;16.10;96.60;;;;;;5031829;28;20022;-73
2023/03/25 01:17:07;;;;;;;3.78;0.90;;;16.10;96.60;;;;;;5031916;28;20041;-72
2023/03/25 01:19:33;;;;;;;5.10;1.10;;;16.10;96.70;;;;;;5032363;28;20140;-71
2023/03/25 01:21:59;;;;;;;3.25;0.73;;;16.00;96.70;;;;;;5031869;28;20034;-71
2023/03/25 01:24:25;;;;;;;4.63;0.90;;;16.00;96.70;;;;;;5033160;28;20115;-72
2023/03/25 01:26:50;;;;;;;3.58;0.65;;;16.00;96.70;;;;;;5035595;28;20022;-71
2023/03/25 01:29:19;;;;;;;4.90;0.95;;;16.10;96.60;;;;;;5036068;28;20021;-71
2023/03/25 01:31:45;;;;;;;2.90;0.70;;;16.00;96.50;;;;;;5035588;28;20025;-71
2023/03/25 01:34:11;;;;;;;3.42;0.73;;;16.00;96.70;;;;;;5035620;28;20031;-72
2023/03/25 01:36:38;;;;;;;4.25;1.02;;;16.00;96.60;;;;;;5035208;28;20037;-71
2023/03/25 01:39:05;;;;;;;3.15;0.90;;;16.00;96.70;;;;;;5035223;28;20383;-70
2023/03/25 01:41:33;;;;;;;2.58;0.77;;;16.00;96.60;;;;;;5035185;28;20037;-70
2023/03/25 01:44:22;;;;;;;3.85;1.08;;;15.90;96.70;;;;;;5035860;28;20029;-71
2023/03/25 01:46:51;;;;;;;4.78;1.08;;;16.00;96.60;;;;;;5015923;28;20034;-71
2023/03/25 01:49:43;;;;;;;3.35;0.90;;;15.90;96.60;;;;;;5035352;28;20040;-72
2023/03/25 01:52:13;;;;;;;3.28;1.08;;;15.90;96.60;;;;;;5035127;28;20045;-70
2023/03/25 01:54:40;;;;;;;3.97;0.75;;;15.90;96.60;;;;;;5035035;28;20490;-71
2023/03/25 01:57:08;;;;;;;4.90;0.90;;;15.80;96.60;;;;;;5034889;28;20470;-72
2023/03/25 01:59:35;;;;;;;4.72;0.70;;;15.90;96.60;;;;;;5035106;28;20025;-71
2023/03/25 02:02:03;;;;;;;3.55;0.80;;;15.90;96.50;;;;;;5034835;28;20505;-71
2023/03/25 02:04:41;;;;;;;3.22;1.13;;;15.80;96.60;;;;;;5034908;28;20017;-72
2023/03/25 02:07:07;;;;;;;2.97;0.82;;;15.80;96.60;;;;;;5034569;28;20029;-71
2023/03/25 02:09:33;;;;;;;3.55;0.70;;;15.80;96.60;;;;;;5034827;28;20026;-71
2023/03/25 02:11:59;;;;;;;4.65;1.25;;;15.80;96.60;;;;;;5034915;28;20029;-71
2023/03/25 02:14:29;;;;;;;7.13;1.50;;;15.80;96.60;;;;;;5033558;28;20459;-72
2023/03/25 02:17:32;;;;;;;5.22;1.00;;;15.80;96.70;;;;;;5034657;28;20463;-71
2023/03/25 02:20:33;;;;;;;5.13;1.35;;;15.80;96.70;;;;;;5034778;28;20508;-71
2023/03/25 02:23:20;;;;;;;4.43;1.10;;;15.80;96.70;;;;;;5034381;28;20022;-70
2023/03/25 02:26:07;;;;;;;3.97;1.10;;;15.80;96.70;;;;;;5034466;28;20032;-71
2023/03/25 02:28:46;;;;;;;5.30;1.40;;;15.80;96.70;;;;;;5034553;28;20021;-71
2023/03/25 02:31:31;;;;;;;5.60;1.38;;;15.80;96.70;;;;;;5034589;28;20077;-70
2023/03/25 02:34:12;;;;;;;4.85;0.93;;;15.70;96.70;;;;;;5034175;28;20030;-72
2023/03/25 02:36:40;;;;;;;4.47;1.10;;;15.70;96.70;;;;;;5032994;28;20029;-72
2023/03/25 02:39:26;;;;;;;4.97;1.10;;;15.70;96.80;;;;;;5034311;28;20215;-70
2023/03/25 02:42:09;;;;;;;6.80;1.65;;;15.70;96.60;;;;;;5034271;28;20540;-71
2023/03/25 02:44:37;;;;;;;;;;;15.60;96.70;;;;;;5034445;28;20018;-72
2023/03/25 02:47:07;;;;;;;6.63;1.13;;;15.60;96.70;;;;;;5034004;28;19992;-71
2023/03/25 02:49:55;;;;;;;5.22;1.17;;;15.60;96.60;;;;;;5034107;28;20040;-72
2023/03/25 02:52:31;;;;;;;4.55;1.50;;;15.60;96.50;;;;;;5033786;28;20030;-71
2023/03/25 02:55:00;;;;;;;4.43;1.58;;;15.60;96.60;;;;;;5033784;28;20022;-72
2023/03/25 02:57:27;;;;;;;5.32;1.30;;;15.60;96.40;;;;;;5034018;28;20022;-71
2023/03/25 02:59:56;;;;;;;5.30;1.40;;;15.60;96.60;;;;;;5033667;28;20021;-71
2023/03/25 03:02:24;;;;;;;4.43;1.17;;;15.60;96.60;;;;;;5034052;28;20112;-71
2023/03/25 03:04:53;;;;;;;5.63;1.30;;;15.60;96.60;;;;;;5033384;28;20532;-71
2023/03/25 03:07:26;;;;;;;7.28;1.58;;;15.60;96.60;;;;;;5034163;28;20026;-70
2023/03/25 03:09:59;;;;;;;5.70;1.27;;;15.50;96.60;;;;;;5032133;28;20356;-71
2023/03/25 03:12:44;;;;;;;6.45;1.58;;;15.60;96.60;;;;;;5033784;28;20044;-71
2023/03/25 03:15:31;;;;;;;7.57;1.40;;;15.60;96.60;;;;;;5033556;28;20097;-71
2023/03/25 03:18:33;;;;;;;6.47;1.30;;;15.50;96.50;;;;;;5033565;28;20132;-70
2023/03/25 03:21:12;;;;;;;7.28;1.33;;;15.50;96.60;;;;;;5033348;28;20037;-71
2023/03/25 03:23:58;;;;;;;8.02;1.95;;;15.50;96.70;;;;;;5033309;28;20022;-71
2023/03/25 03:26:42;;;;;;;7.07;1.35;;;15.50;96.50;;;;;;5033382;28;20036;-72
2023/03/25 03:29:26;;;;;;;5.75;1.48;;;15.50;96.50;;;;;;5033335;28;20053;-71
2023/03/25 03:32:03;;;;;;;9.55;1.60;;;15.50;96.50;;;;;;5033321;28;20037;-71
2023/03/25 03:34:45;;;;;;;6.78;1.42;;;15.50;96.60;;;;;;5033503;28;20036;-70
2023/03/25 03:37:15;;;;;;;6.75;1.52;;;15.50;96.60;;;;;;5033347;28;20028;-70
2023/03/25 03:39:42;;;;;;;6.60;1.60;;;15.40;96.60;;;;;;5033113;28;20029;-70
2023/03/25 03:42:20;;;;;;;7.03;1.40;;;15.50;96.60;;;;;;5032959;28;20033;-72
2023/03/25 03:44:52;;;;;;;4.65;1.48;;;15.50;96.70;;;;;;5033311;28;20108;-71
2023/03/25 03:47:23;;;;;;;7.53;1.40;;;15.40;96.70;;;;;;5033056;28;20044;-70
2023/03/25 03:50:01;;;;;;;5.63;1.40;;;15.40;96.70;;;;;;5031308;28;20041;-71
2023/03/25 03:52:36;;;;;;;5.95;1.40;;;15.40;96.50;;;;;;5033120;28;20029;-71
2023/03/25 03:55:28;;;;;;;5.25;1.30;;;15.40;96.70;;;;;;5032626;28;20364;-71
2023/03/25 03:58:01;;;;;;;6.68;1.17;;;15.40;96.60;;;;;;5033105;28;20025;-70
2023/03/25 04:00:35;;;;;;;4.55;1.33;;;15.40;96.60;;;;;;5032639;28;20044;-71
2023/03/25 04:03:13;;;;;;;6.53;1.50;;;15.40;96.60;;;;;;5032431;28;20026;-70
2023/03/25 04:05:51;;;;;;;8.65;1.83;;;15.40;96.60;;;;;;5031382;28;20540;-70
2023/03/25 04:08:59;;;;;;;6.57;1.23;;;15.40;96.60;;;;;;5033024;28;20386;-70
2023/03/25 04:12:05;;;;;;;5.20;1.20;;;15.40;96.60;;;;;;5032493;28;20017;-69
2023/03/25 04:14:31;;;;;;;7.93;1.77;;;15.40;96.50;;;;;;5032050;28;20045;-72
2023/03/25 04:16:58;;;;;;;6.32;1.13;;;15.30;96.60;;;;;;5032401;28;20033;-70
2023/03/25 04:19:24;;;;;;;6.53;1.60;;;15.30;96.50;;;;;;5032413;28;20477;-71
2023/03/25 04:21:52;;;;;;;5.47;1.70;;;15.30;96.50;;;;;;5032276;28;20381;-69
2023/03/25 04:24:18;;;;;;;4.97;1.40;;;15.30;96.50;;;;;;5025395;28;20067;-72
2023/03/25 04:26:44;;;;;;;7.32;1.73;;;15.30;96.60;;;;;;5012566;28;20026;-70
2023/03/25 04:29:12;;;;;;;6.13;1.13;;;15.30;96.50;;;;;;5011953;28;20030;-71
2023/03/25 04:31:45;;;;;;;5.45;1.45;;;15.20;96.40;;;;;;5012664;28;20030;-70
2023/03/25 04:34:13;;;;;;;7.93;1.75;;;15.30;96.50;;;;;;5012678;28;20026;-71
2023/03/25 04:36:41;;;;;;;6.72;1.50;;;15.20;96.50;;;;;;5012518;28;20030;-71
2023/03/25 04:39:09;;;;;;;6.90;1.25;;;15.20;96.40;;;;;;5027979;28;20418;-70
2023/03/25 04:41:34;;;;;;;5.15;1.52;;;15.20;96.60;;;;;;5012676;28;20045;-72
2023/03/25 04:44:00;;;;;;;6.30;1.38;;;15.20;96.50;;;;;;5011931;28;20022;-71
2023/03/25 04:46:25;;;;;;;6.95;1.88;;;15.20;96.50;;;;;;5012932;28;20034;-70
2023/03/25 04:48:52;;;;;;;5.10;1.30;;;15.20;96.40;;;;;;5011703;28;20062;-71
2023/03/25 04:51:18;;;;;;;6.13;1.50;;;15.20;96.30;;;;;;5010956;28;20030;-70
2023/03/25 04:53:44;;;;;;;5.70;1.33;;;15.20;96.40;;;;;;5011604;28;20026;-71
2023/03/25 04:56:16;;;;;;;7.85;1.45;;;15.20;96.40;;;;;;5012489;28;20026;-71
2023/03/25 04:58:42;;;;;;;5.90;1.30;;;15.20;96.40;;;;;;5013299;28;20372;-71
2023/03/25 05:01:18;;;;;;;4.80;1.42;;;15.20;96.30;;;;;;5016036;28;20555;-71
2023/03/25 05:03:43;;;;;;;6.07;1.55;;;15.20;96.40;;;;;;5016058;28;20410;-70
2023/03/25 05:06:10;;;;;;;4.63;1.02;;;15.10;96.30;;;;;;5016435;28;20084;-72
2023/03/25 05:08:35;;;;;;;6.68;1.80;;;15.10;96.20;;;;;;5016464;28;20018;-71
2023/03/25 05:11:02;;;;;;;8.65;1.55;;;15.10;96.20;;;;;;5016010;28;20030;-72
2023/03/25 05:13:27;;;;;;;7.45;1.48;;;15.10;96.20;;;;;;5016632;28;20022;-72
2023/03/25 05:15:53;;;;;;;3.83;0.95;;;15.10;96.20;;;;;;5015810;28;20417;-71
2023/03/25 05:18:18;;;;;;;6.57;1.50;;;15.10;96.10;;;;;;5015923;28;20042;-70
2023/03/25 05:20:45;;;;;;;5.20;1.48;;;15.10;96.10;;;;;;5015985;28;20033;-71
2023/03/25 05:23:16;;;;;;;5.45;1.23;;;15.10;96.10;;;;;;5015786;28;20555;-70
2023/03/25 05:25:43;;;;;;;5.50;1.27;;;15.10;96.10;;;;;;5015755;28;20014;-71
2023/03/25 05:28:12;;;;;;;4.00;1.02;;;15.00;96.10;;;;;;5015711;28;20036;-71
2023/03/25 05:30:44;;;;;;;5.95;1.30;;;15.00;96.10;;;;;;5015431;28;20442;-71
2023/03/25 05:33:14;;;;;;;5.07;0.93;;;15.00;96.10;;;;;;5015337;28;20084;-70
2023/03/25 05:35:41;;;;;;;7.65;1.08;;;15.00;96.00;;;;;;5015623;28;20120;-70
2023/03/25 05:38:07;;;;;;;4.85;1.20;;;15.00;96.00;;;;;;5015404;28;20029;-70
2023/03/25 05:40:33;;;;;;;6.07;1.20;;;15.00;96.00;;;;;;5015573;28;20052;-70
2023/03/25 05:42:59;;;;;;;3.72;1.30;;;15.00;96.10;;;;;;5015462;28;20547;-69
2023/03/25 05:45:25;;;;;;;8.18;1.25;;;15.00;96.00;;;;;;5015043;28;20096;-69
2023/03/25 05:47:51;;;;;;;3.85;1.00;;;15.00;95.90;;;;;;5015289;28;20040;-69
2023/03/25 05:50:16;;;;;;;6.43;1.92;;;15.00;95.90;;;;;;5015593;28;20021;-73
2023/03/25 05:52:42;;;;;;;5.05;1.33;;;15.00;95.90;;;;;;5015352;28;20092;-70
2023/03/25 05:55:18;;;;;;;5.03;0.95;;;14.90;95.90;;;;;;5015374;28;20072;-70
2023/03/25 05:57:44;;;;;;;4.45;1.25;;;14.90;96.00;;;;;;5015211;28;20026;-70
2023/03/25 06:00:11;;;;;;;6.95;1.15;;;14.90;96.00;;;;;;5014406;28;20033;-71
2023/03/25 06:02:38;;;;;;;6.60;1.38;;;14.90;96.00;;;;;;5025705;28;20022;-71
2023/03/25 06:05:05;;;;;;;8.65;1.52;;;14.90;96.00;;;;;;5015066;28;20018;-71
2023/03/25 06:07:31;;;;;;;8.30;1.20;;;14.90;95.70;;;;;;5013334;28;20033;-71
2023/03/25 06:09:56;;;;;;;7.68;1.65;;;14.90;95.90;;;;;;5013541;28;20029;-72
2023/03/25 06:12:26;;;;;;;7.57;1.90;;;14.90;95.90;;;;;;5015432;28;20362;-71
2023/03/25 06:14:53;;;;;;;7.70;1.85;;;14.90;95.70;;;;;;5014625;28;20052;-71
2023/03/25 06:17:23;;;;;;;5.20;1.10;;;14.80;95.80;;;;;;5015006;28;20033;-70
2023/03/25 06:19:50;;;;;;;9.02;2.05;;;14.80;95.80;;;;;;5019469;28;20030;-69
2023/03/25 06:22:16;;;;;;;4.55;1.40;;;14.80;95.80;;;;;;5046831;28;20037;-73
2023/03/25 06:24:42;;;;;;;8.55;1.67;;;14.80;95.80;;;;;;5054429;28;20028;-72
2023/03/25 06:27:12;;;;;;;8.82;1.50;;;14.80;95.80;;;;;;5054964;28;20025;-71
2023/03/25 06:29:40;;;;;;;6.70;1.73;;;14.80;95.80;;;;;;5052346;28;20486;-72
2023/03/25 06:32:06;;;;;;;10.07;2.25;;;14.80;95.80;;;;;;5032651;28;20022;-70
2023/03/25 06:34:32;;;;;;;6.80;1.77;;;14.80;95.70;;;;;;5039018;28;20023;-72
2023/03/25 06:36:58;;;;;;;9.20;1.95;;;14.70;95.60;;;;;;5054310;28;20029;-70
2023/03/25 06:39:25;;;;;;;8.20;1.58;;;14.80;95.80;;;;;;5049335;28;20025;-70
2023/03/25 06:41:50;;;;;;;11.07;1.95;;;14.80;95.80;;;;;;5053983;28;20485;-70
2023/03/25 06:44:16;;;;;;;7.60;1.73;;;14.80;95.60;;;;;;5053962;28;20021;-70
2023/03/25 06:46:42;;;;;;;7.63;1.85;;;14.80;95.60;;;;;;5053832;28;20508;-69
2023/03/25 06:49:08;;;;;;;9.18;2.03;;;14.80;95.50;;;;;;5053911;28;20496;-70
2023/03/25 06:51:34;;;;;;;8.70;1.80;;;14.80;95.60;;;;;;5051384;28;20032;-72
2023/03/25 06:54:00;;;;;;;8.75;2.00;;;14.80;95.60;;;;;;5053756;28;20017;-72
2023/03/25 06:56:25;;;;;;;10.07;2.15;;;14.80;95.60;;;;;;5053820;28;20032;-72
2023/03/25 06:58:51;;;;;;;8.00;1.85;;;14.80;95.60;;;;;;5053582;28;20024;-69
2023/03/25 07:01:17;;;;;;;9.25;2.17;;;14.80;95.50;;;;;;5043642;28;20029;-71
2023/03/25 07:03:42;;;;;;;8.98;1.67;;;14.80;95.60;;;;;;5029618;28;20032;-70
2023/03/25 07:06:15;;;;;;;8.18;2.40;;;14.70;95.50;;;;;;5032571;28;20041;-71
2023/03/25 07:08:41;;;;;;;11.25;2.13;;;14.80;95.50;;;;;;5030727;28;20028;-71
2023/03/25 07:11:07;;;;;;;8.18;2.47;;;14.70;95.60;;;;;;5031775;28;20029;-70
2023/03/25 07:13:33;;;;;;;10.50;2.40;;;14.70;95.60;;;;;;5028973;28;20048;-71
2023/03/25 07:15:59;;;;;;;12.02;2.92;;;14.70;95.60;;;;;;5040176;28;20028;-70
2023/03/25 07:18:26;;;;;;;9.48;2.38;;;14.70;95.40;;;;;;5039681;28;20136;-70
2023/03/25 07:20:51;;;;;;;11.73;2.75;;;14.60;95.60;;;;;;5028661;28;20087;-71
2023/03/25 07:23:17;;;;;;;12.10;2.47;;;14.60;95.60;;;;;;5026808;28;20025;-70
2023/03/25 07:25:43;;;;;;;11.60;2.05;;;14.70;95.60;;;;;;5031709;28;20391;-70
2023/03/25 07:28:09;;;;;;;9.80;2.47;;;14.70;95.60;;;;;;5030918;28;20100;-71
2023/03/25 07:30:34;;;;;;;15.90;3.40;;;14.80;95.60;;;;;;5030194;28;20023;-70
2023/03/25 07:33:00;;;;;;;11.30;2.60;;;14.80;95.70;;;;;;5031774;28;20057;-69
2023/03/25 07:35:25;;;;;;;12.57;3.50;;;14.80;95.70;;;;;;5032208;28;20144;-69
2023/03/25 07:37:51;;;;;;;11.85;3.13;;;14.80;95.50;;;;;;5042106;28;20488;-70
2023/03/25 07:40:17;;;;;;;13.98;3.08;;;14.80;95.50;;;;;;5051466;28;20021;-71
2023/03/25 07:42:43;;;;;;;10.30;2.53;;;14.90;95.60;;;;;;5033911;28;20037;-71
2023/03/25 07:45:10;;;;;;;15.27;3.00;;;14.80;95.80;;;;;;5032859;28;20021;-71
2023/03/25 07:47:36;;;;;;;11.68;2.70;;;14.90;96.40;;;;;;5021338;28;20109;-71
2023/03/25 07:50:02;;;;;;;12.98;2.65;;;14.90;96.40;;;;;;5032250;28;20562;-72
2023/03/25 07:52:27;;;;;;;12.05;2.60;;;14.90;96.40;;;;;;5020603;28;20429;-72
2023/03/25 07:54:53;;;;;;;11.27;3.53;;;14.90;96.50;;;;;;5023299;28;20109;-72
2023/03/25 07:57:19;;;;;;;19.13;3.13;;;14.90;96.50;;;;;;5022850;28;20029;-72
2023/03/25 07:59:45;;;;;;;14.65;3.58;;;14.90;96.60;;;;;;5016600;28;20030;-71
2023/03/25 08:02:12;;;;;;;17.30;3.42;;;15.00;96.60;;;;;;5024636;28;20044;-72
2023/03/25 08:04:37;;;;;;;14.73;3.70;;;14.90;96.50;;;;;;5021203;28;20025;-71
2023/03/25 08:07:03;;;;;;;18.15;3.42;;;15.00;96.90;;;;;;5022544;28;20026;-73
2023/03/25 08:09:29;;;;;;;14.20;3.13;;;15.00;97.50;;;;;;5023839;28;20044;-72
2023/03/25 08:11:54;;;;;;;14.70;3.55;;;15.10;97.00;;;;;;5019013;28;20466;-74
2023/03/25 08:14:20;;;;;;;16.77;4.22;;;15.10;96.70;;;;;;5026789;28;20482;-72
2023/03/25 08:16:46;;;;;;;10.10;2.63;;;15.10;96.70;;;;;;5026038;28;20056;-72
2023/03/25 08:19:11;;;;;;;11.68;2.95;;;15.10;96.90;;;;;;5024581;28;20453;-71
2023/03/25 08:21:37;;;;;;;16.77;3.10;;;15.10;96.90;;;;;;5025679;28;20103;-72
2023/03/25 08:24:03;;;;;;;13.35;3.17;;;15.20;97.30;;;;;;5021400;28;20069;-72
2023/03/25 08:26:30;;;;;;;13.80;3.28;;;15.20;96.90;;;;;;5025778;28;20072;-71
2023/03/25 08:28:56;;;;;;;17.83;3.92;;;15.20;97.00;;;;;;5022016;28;20517;-71
2023/03/25 08:31:29;;;;;;;17.13;3.55;;;15.20;97.20;;;;;;5019840;28;20026;-73
2023/03/25 08:33:56;;;;;;;13.70;3.88;;;15.20;97.30;;;;;;5020570;28;20026;-72
2023/03/25 08:36:22;;;;;;;18.50;3.72;;;15.20;97.60;;;;;;5027583;28;20018;-73
2023/03/25 08:38:48;;;;;;;13.57;3.40;;;15.20;97.70;;;;;;5023655;28;20018;-73
2023/03/25 08:41:14;;;;;;;14.82;3.10;;;15.20;98.00;;;;;;5030069;28;20124;-73
2023/03/25 08:43:40;;;;;;;13.32;2.95;;;15.20;97.80;;;;;;5029557;28;20105;-73
2023/03/25 08:46:06;;;;;;;23.45;4.28;;;15.20;98.00;;;;;;5027423;28;20057;-71
2023/03/25 08:48:31;;;;;;;17.90;3.60;;;15.10;96.70;;;;;;5030699;28;20030;-71
2023/03/25 08:50:57;;;;;;;16.23;3.92;;;15.20;97.70;;;;;;5039314;28;20505;-71
2023/03/25 08:53:23;;;;;;;18.27;3.88;;;15.20;97.90;;;;;;5029090;28;20051;-72
2023/03/25 08:55:51;;;;;;;14.73;3.17;;;15.20;98.40;;;;;;5028713;28;20025;-72
2023/03/25 08:58:17;;;;;;;18.58;4.20;;;15.20;98.40;;;;;;5032880;28;20466;-72
2023/03/25 09:00:43;;;;;;;13.77;3.30;;;15.20;98.30;;;;;;5037948;28;20032;-72
2023/03/25 09:03:09;;;;;;;12.73;3.10;;;15.30;97.30;;;;;;5033571;28;20029;-71
2023/03/25 09:05:40;;;;;;;14.18;3.15;;;15.40;97.60;;;;;;5031435;28;20060;-73
2023/03/25 09:08:07;;;;;;;11.23;2.45;;;15.40;97.80;;;;;;5030244;28;20033;-71
2023/03/25 09:10:33;;;;;;;13.57;3.13;;;15.50;97.20;;;;;;5031701;28;21859;-73
2023/03/25 09:12:58;;;;;;;13.50;3.70;;;15.50;96.80;;;;;;5031455;28;20087;-74
2023/03/25 09:15:25;;;;;;;14.02;3.38;;;15.60;97.40;;;;;;5033332;28;20493;-71
2023/03/25 09:17:51;;;;;;;14.18;3.40;;;15.50;96.60;;;;;;5035125;28;20390;-77
2023/03/25 09:20:17;;;;;;;17.83;3.60;;;15.50;97.10;;;;;;5032077;28;20478;-72
2023/03/25 09:22:43;;;;;;;15.68;3.50;;;15.50;97.30;;;;;;5026007;28;20040;-72
2023/03/25 09:25:09;;;;;;;13.40;3.15;;;15.60;97.60;;;;;;5029297;28;20550;-72
2023/03/25 09:27:35;;;;;;;19.80;3.78;;;15.60;97.50;;;;;;5031903;28;20074;-71
2023/03/25 09:30:00;;;;;;;15.75;3.65;;;15.60;96.90;;;;;;5030069;28;20021;-73
2023/03/25 09:32:26;;;;;;;19.90;3.95;;;15.60;97.10;;;;;;5021886;28;20090;-72
2023/03/25 09:34:51;;;;;;;19.95;4.10;;;15.60;96.20;;;;;;5030487;28;20072;-72
2023/03/25 09:37:17;;;;;;;17.25;3.70;;;15.50;96.00;;;;;;5033640;28;20018;-72
2023/03/25 09:39:43;;;;;;;17.75;3.70;;;15.50;96.00;;;;;;5034361;28;20025;-72
2023/03/25 09:42:30;;;;;;;22.38;3.88;;;15.50;95.90;;;;;;5032234;28;20037;-71
2023/03/25 09:45:14;;;;;;;17.50;3.75;;;15.50;95.90;;;;;;5030555;28;20024;-71
2023/03/25 09:48:20;;;;;;;18.88;3.53;;;15.50;96.30;;;;;;5020374;28;20033;-71
2023/03/25 09:50:46;;;;;;;17.10;3.50;;;15.60;96.90;;;;;;5018548;28;20068;-71
2023/03/25 09:53:41;;;;;;;15.02;3.30;;;15.60;97.20;;;;;;5029027;28;20381;-75
2023/03/25 09:56:15;;;;;;;17.05;3.67;;;15.60;96.50;;;;;;5029901;28;20033;-73
2023/03/25 09:58:46;;;;;;;21.05;4.50;;;15.60;96.50;;;;;;5026188;28;20508;-73
2023/03/25 10:01:40;;;;;;;16.42;3.63;;;15.60;97.60;;;;;;5022866;28;20478;-73
2023/03/25 10:04:29;;;;;;;15.02;3.47;;;15.70;97.90;;;;;;5031506;28;20303;-72
2023/03/25 10:07:14;;;;;;;16.63;3.75;;;15.70;97.30;;;;;;5036492;28;20115;-73
2023/03/25 10:09:58;;;;;;;21.13;4.93;;;15.70;98.10;;;;;;5029430;28;20044;-71
2023/03/25 10:12:36;;;;;;;21.83;4.07;;;15.80;98.70;;;;;;5037566;28;20466;-72
2023/03/25 10:15:25;;;;;;;19.48;4.25;;;15.80;98.10;;;;;;5032605;28;20021;-72
2023/03/25 10:18:22;;;;;;;23.42;4.35;;;15.80;98.70;;;;;;5027216;28;20033;-72
2023/03/25 10:21:10;;;;;;;26.38;4.57;;;15.80;98.60;;;;;;5027453;28;20061;-73
2023/03/25 10:23:41;;;;;;;11.48;3.38;;;15.90;99.10;;;;;;5026759;28;20034;-74
2023/03/25 10:26:18;;;;;;;21.40;4.30;;;15.90;99.60;;;;;;5035478;28;20029;-72
2023/03/25 10:28:52;;;;;;;17.52;4.45;;;15.90;98.90;;;;;;5032075;28;20285;-73
2023/03/25 10:31:21;;;;;;;23.63;4.32;;;15.90;99.10;;;;;;5035245;28;20029;-73
2023/03/25 10:33:56;;;;;;;18.27;4.32;;;16.00;99.90;;;;;;5033613;28;20018;-72
2023/03/25 10:36:37;;;;;;;16.80;3.85;;;16.00;99.90;;;;;;5037664;28;20017;-73
2023/03/25 10:39:17;;;;;;;19.20;4.25;;;16.00;99.60;;;;;;5033816;28;20026;-74
2023/03/25 10:41:47;;;;;;;19.90;4.40;;;16.10;99.90;;;;;;5030811;28;20037;-73
2023/03/25 10:44:12;;;;;;;17.17;4.28;;;16.10;99.90;;;;;;5033945;28;20091;-75
2023/03/25 10:46:47;;;;;;;16.42;3.67;;;16.20;99.90;;;;;;5036488;28;20033;-74
2023/03/25 10:49:21;;;;;;;22.48;4.57;;;16.20;99.90;;;;;;5031311;28;20088;-72
2023/03/25 10:51:52;;;;;;;22.52;4.82;;;16.40;99.90;;;;;;5039294;28;20121;-72
2023/03/25 10:54:18;;;;;;;17.48;3.55;;;16.40;99.90;;;;;;5029337;28;20024;-75
2023/03/25 10:56:50;;;;;;;20.75;4.07;;;16.40;99.90;;;;;;5030882;28;20498;-73
2023/03/25 10:59:33;;;;;;;17.92;4.05;;;16.40;99.90;;;;;;5027461;28;20022;-73
2023/03/25 11:02:03;;;;;;;26.08;4.25;;;16.40;99.90;;;;;;5029479;28;20041;-72
2023/03/25 11:04:37;;;;;;;23.08;5.03;;;16.40;99.90;;;;;;5029248;28;20387;-72
2023/03/25 11:07:15;;;;;;;18.50;5.38;;;16.50;99.90;;;;;;5029557;28;20486;-73
2023/03/25 11:09:41;;;;;;;19.75;5.82;;;16.40;99.90;;;;;;5029551;28;20103;-73
2023/03/25 11:12:07;;;;;;;20.23;5.32;;;16.50;99.90;;;;;;5033973;28;20020;-75
2023/03/25 11:14:37;;;;;;;22.58;5.80;;;16.50;99.90;;;;;;5032450;28;20502;-74
2023/03/25 11:17:10;;;;;;;19.42;5.20;;;16.50;99.90;;;;;;5029465;28;20479;-75
2023/03/25 11:19:39;;;;;;;15.88;4.63;;;16.50;99.90;;;;;;5029003;28;20041;-74
2023/03/25 11:22:15;;;;;;;16.85;4.43;;;16.50;99.90;;;;;;5028759;28;20103;-73
2023/03/25 11:24:45;;;;;;;21.90;4.43;;;16.60;99.90;;;;;;5024998;28;20117;-73
2023/03/25 11:27:24;;;;;;;15.45;3.72;;;16.60;99.90;;;;;;5025908;28;20084;-73
2023/03/25 11:29:52;;;;;;;27.17;4.70;;;16.60;99.90;;;;;;5019220;28;20112;-74
2023/03/25 11:32:23;;;;;;;17.48;3.60;;;16.60;99.90;;;;;;5024565;28;20017;-75
2023/03/25 11:34:52;;;;;;;14.23;3.70;;;16.60;99.60;;;;;;5022268;28;20103;-76
2023/03/25 11:37:23;;;;;;;22.25;3.95;;;16.70;99.20;;;;;;5022210;28;20292;-75
2023/03/25 11:39:54;;;;;;;18.33;3.47;;;16.70;99.10;;;;;;5029182;28;20508;-72
2023/03/25 11:42:38;;;;;;;17.80;3.90;;;16.70;98.60;;;;;;5031076;28;20043;-73
2023/03/25 11:45:04;;;;;;;14.55;3.63;;;16.70;98.40;;;;;;5027237;28;20421;-74
2023/03/25 11:47:40;;;;;;;14.80;3.17;;;16.70;98.30;;;;;;5021588;28;20096;-72
2023/03/25 11:50:17;;;;;;;19.38;3.47;;;16.70;97.90;;;;;;5022397;28;20494;-70
2023/03/25 11:52:49;;;;;;;11.40;2.60;;;16.70;97.60;;;;;;5027187;28;20033;-73
2023/03/25 11:55:44;;;;;;;13.25;2.83;;;16.70;97.10;;;;;;5032765;28;20021;-73
2023/03/25 11:58:16;;;;;;;11.98;2.60;;;16.80;96.80;;;;;;5026204;28;20490;-72
2023/03/25 12:01:10;;;;;;;12.48;3.00;;;16.80;96.60;;;;;;5025788;28;20390;-74
2023/03/25 12:03:38;;;;;;;13.43;3.03;;;16.80;96.50;;;;;;5027068;28;20441;-71
2023/03/25 12:06:11;;;;;;;11.10;2.42;;;16.70;96.40;;;;;;5030411;28;20477;-71
2023/03/25 12:08:57;;;;;;;10.45;2.55;;;16.80;96.50;;;;;;5024141;28;20052;-70
2023/03/25 12:11:45;;;;;;;13.00;2.38;;;16.90;96.60;;;;;;5020372;28;20057;-73
2023/03/25 12:14:49;;;;;;;13.07;2.70;;;16.80;96.40;;;;;;5025594;28;20010;-69
2023/03/25 12:17:32;;;;;;;8.93;2.55;;;16.80;96.60;;;;;;5024440;28;20063;-71
2023/03/25 12:20:10;;;;;;;16.67;3.33;;;16.80;96.70;;;;;;5030147;28;20033;-71
2023/03/25 12:23:02;;;;;;;11.63;2.50;;;16.90;96.80;;;;;;5029498;28;20036;-73
2023/03/25 12:25:52;;;;;;;9.65;2.70;;;16.90;96.80;;;;;;5034574;28;20044;-72
2023/03/25 12:28:36;;;;;;;15.00;2.92;;;17.00;96.90;;;;;;5034943;28;20022;-74
2023/03/25 12:31:10;;;;;;;12.50;3.17;;;17.00;97.10;;;;;;5028207;28;20028;-75
2023/03/25 12:33:56;;;;;;;10.57;2.50;;;17.00;96.90;;;;;;5029573;28;20029;-71
2023/03/25 12:36:38;;;;;;;10.85;2.03;;;17.10;96.90;;;;;;5028989;28;20021;-72
2023/03/25 12:39:07;;;;;;;15.18;3.13;;;17.10;96.70;;;;;;5037313;28;20059;-72
2023/03/25 12:42:02;;;;;;;11.45;2.25;;;17.10;96.70;;;;;;5027894;28;20045;-74
2023/03/25 12:44:47;;;;;;;12.75;2.88;;;17.10;96.40;;;;;;5027824;28;20954;-71
2023/03/25 12:47:28;;;;;;;14.40;3.33;;;17.10;95.90;;;;;;5012000;28;20038;-73
2023/03/25 12:50:07;;;;;;;13.68;2.70;;;17.10;95.80;;;;;;5027046;28;20090;-71
2023/03/25 12:53:00;;;;;;;13.70;2.90;;;17.10;95.80;;;;;;5025540;28;20032;-71
2023/03/25 12:55:51;;;;;;;14.98;2.90;;;17.10;95.70;;;;;;5027955;28;20071;-72
2023/03/25 12:58:58;;;;;;;13.23;2.88;;;17.10;95.70;;;;;;5039024;28;20030;-71
2023/03/25 13:01:31;;;;;;;12.43;2.72;;;17.10;95.80;;;;;;5021119;28;20033;-73
2023/03/25 13:04:18;;;;;;;;;;;17.10;95.60;;;;;;5024594;28;20037;-73
2023/03/25 13:06:46;;;;;;;13.95;2.80;;;17.10;95.60;;;;;;5012880;28;19913;-72